Time;durP1;ratioP1;P1;durP2;ratioP2;P2;SDS_P1;SDS_P2;PMS_P1;PMS_P2;Temp;Humidity;BMP_temperature;BMP_pressure;BME280_temperature;BME280_humidity;BME280_pressure;Samples;Min_cycle;Max_cycle;Signal;HPM_P1;HPM_P2
2023/08/17 00:02:06;;;;;;;15.50;6.97;;;;;;;24.76;59.24;98310.44;4426453;32;20093;-80
2023/08/17 00:04:33;;;;;;;13.38;6.70;;;;;;;24.92;58.92;98315.06;4426287;32;20153;-81
2023/08/17 00:07:00;;;;;;;11.12;6.05;;;;;;;24.77;59.59;98314.72;4425186;32;20130;-81
2023/08/17 00:09:27;;;;;;;12.30;6.12;;;;;;;24.93;59.23;98306.16;4426565;32;20117;-81
2023/08/17 00:11:54;;;;;;;13.43;6.93;;;;;;;24.09;62.85;98310.75;4426032;32;20149;-80
2023/08/17 00:14:21;;;;;;;11.55;6.43;;;;;;;24.15;62.59;98310.19;4426339;32;20094;-81
2023/08/17 00:16:50;;;;;;;12.82;7.03;;;;;;;24.70;60.59;98304.94;4425996;32;20098;-80
2023/08/17 00:19:17;;;;;;;11.02;5.65;;;;;;;25.04;59.33;98305.97;4412129;32;20157;-80
2023/08/17 00:21:45;;;;;;;12.30;5.45;;;;;;;25.08;59.03;98311.78;4412683;32;20118;-81
2023/08/17 00:24:12;;;;;;;10.60;5.50;;;;;;;25.61;56.94;98308.28;4412545;32;20413;-80
2023/08/17 00:26:39;;;;;;;9.88;5.53;;;;;;;25.72;55.36;98308.03;4425917;32;20184;-80
2023/08/17 00:29:05;;;;;;;11.00;5.82;;;;;;;25.42;55.84;98311.94;4426237;32;20141;-81
2023/08/17 00:31:33;;;;;;;12.43;5.60;;;;;;;25.83;54.91;98309.59;4412334;32;20173;-81
2023/08/17 00:34:00;;;;;;;11.60;5.75;;;;;;;26.02;53.89;98306.75;4425785;32;20140;-80
2023/08/17 00:36:26;;;;;;;12.65;5.68;;;;;;;25.34;55.09;98302.13;4426171;32;20511;-80
2023/08/17 00:38:53;;;;;;;10.98;6.25;;;;;;;25.53;54.46;98295.03;4426127;32;20149;-80
2023/08/17 00:41:20;;;;;;;12.15;5.93;;;;;;;25.01;56.29;98301.00;4425702;32;20141;-80
2023/08/17 00:43:47;;;;;;;13.93;6.03;;;;;;;24.24;58.73;98296.09;4412240;32;20516;-80
2023/08/17 00:46:14;;;;;;;10.95;5.60;;;;;;;25.45;55.55;98302.88;4426138;32;20094;-81
2023/08/17 00:48:41;;;;;;;18.17;6.82;;;;;;;25.60;55.91;98302.16;4425549;32;20077;-80
2023/08/17 00:51:09;;;;;;;11.30;5.80;;;;;;;25.37;57.12;98299.19;4412138;32;20475;-80
2023/08/17 00:53:35;;;;;;;11.63;6.20;;;;;;;24.99;58.97;98302.94;4412253;32;20109;-80
2023/08/17 00:56:03;;;;;;;12.23;5.70;;;;;;;25.12;58.34;98293.84;4425587;32;20173;-81
2023/08/17 00:58:30;;;;;;;13.55;6.22;;;;;;;25.16;58.80;98292.56;4426099;32;20081;-80
2023/08/17 01:00:58;;;;;;;10.15;5.82;;;;;;;25.08;58.17;98288.84;4411750;32;20595;-80
2023/08/17 01:03:29;;;;;;;10.98;5.85;;;;;;;25.22;58.01;98284.88;4412180;32;20106;-80
2023/08/17 01:05:57;;;;;;;14.00;6.00;;;;;;;25.31;57.39;98291.06;4426005;32;20082;-80
2023/08/17 01:08:24;;;;;;;15.48;6.12;;;;;;;25.08;57.50;98291.50;4425443;32;20527;-80
2023/08/17 01:10:57;;;;;;;13.35;6.62;;;;;;;24.84;58.47;98285.94;4412091;32;20161;-81
2023/08/17 01:13:38;;;;;;;10.32;5.45;;;;;;;24.34;60.42;98286.37;4425894;32;20102;-80
2023/08/17 01:16:08;;;;;;;11.45;6.37;;;;;;;24.84;58.27;98280.66;4411519;32;20093;-81
2023/08/17 01:18:37;;;;;;;12.60;6.37;;;;;;;25.03;56.91;98285.03;4425796;32;20100;-81
2023/08/17 01:21:06;;;;;;;12.82;6.40;;;;;;;24.71;57.78;98277.56;4412141;32;20121;-81
2023/08/17 01:23:34;;;;;;;12.98;5.85;;;;;;;24.66;58.08;98279.81;4411770;32;20114;-81
2023/08/17 01:26:01;;;;;;;13.40;6.00;;;;;;;24.59;58.28;98276.97;4412023;32;20164;-80
2023/08/17 01:28:28;;;;;;;12.65;6.50;;;;;;;24.56;58.27;98279.88;4425924;32;20085;-81
2023/08/17 01:31:04;;;;;;;13.55;6.32;;;;;;;24.96;56.89;98282.09;4425303;32;20094;-80
2023/08/17 01:33:44;;;;;;;14.00;6.47;;;;;;;24.87;57.47;98277.72;4425819;32;20120;-80
2023/08/17 01:36:15;;;;;;;13.90;6.43;;;;;;;24.92;58.05;98278.13;4411678;32;20161;-81
2023/08/17 01:38:43;;;;;;;10.27;5.93;;;;;;;24.94;56.98;98276.16;4411930;32;20124;-81
2023/08/17 01:41:13;;;;;;;11.05;5.50;;;;;;;24.95;55.78;98279.63;4425662;32;20196;-81
2023/08/17 01:43:45;;;;;;;13.68;6.15;;;;;;;24.83;55.42;98273.75;4411783;32;20077;-81
2023/08/17 01:46:17;;;;;;;10.63;6.07;;;;;;;24.03;58.90;98279.69;4425589;32;20104;-81
2023/08/17 01:48:44;;;;;;;13.18;6.25;;;;;;;23.65;60.36;98282.31;4412110;32;20061;-81
2023/08/17 01:51:21;;;;;;;12.27;6.30;;;;;;;23.74;60.02;98282.44;4425181;32;20117;-80
2023/08/17 01:53:48;;;;;;;13.25;6.65;;;;;;;23.92;59.24;98284.16;4425507;32;20376;-81
2023/08/17 01:56:15;;;;;;;11.45;5.93;;;;;;;23.88;60.51;98289.88;4425422;32;20106;-81
2023/08/17 01:58:42;;;;;;;12.37;6.82;;;;;;;24.25;58.94;98287.25;4425215;32;20069;-81
2023/08/17 02:01:09;;;;;;;13.88;6.37;;;;;;;23.41;63.28;98296.88;4425605;32;20086;-81
2023/08/17 02:03:36;;;;;;;12.40;6.35;;;;;;;24.69;57.91;98287.47;4425402;32;20201;-81
2023/08/17 02:06:03;;;;;;;11.05;6.10;;;;;;;24.58;57.19;98280.56;4425033;32;20108;-81
2023/08/17 02:08:30;;;;;;;10.98;5.50;;;;;;;24.26;58.63;98278.34;4425451;32;20085;-81
2023/08/17 02:10:57;;;;;;;10.50;5.57;;;;;;;24.70;56.95;98276.75;4424897;32;20145;-81
2023/08/17 02:13:24;;;;;;;11.93;6.10;;;;;;;24.45;57.83;98283.53;4411443;32;20105;-81
2023/08/17 02:15:51;;;;;;;13.15;5.50;;;;;;;24.51;57.66;98284.78;4425255;32;20104;-80
2023/08/17 02:18:18;;;;;;;10.32;5.68;;;;;;;24.61;56.55;98279.44;4425021;32;20101;-80
2023/08/17 02:20:45;;;;;;;12.68;6.10;;;;;;;24.95;55.54;98274.34;4425292;32;20101;-80
2023/08/17 02:23:12;;;;;;;10.63;5.40;;;;;;;24.55;56.26;98283.50;4425125;32;20168;-81
2023/08/17 02:25:39;;;;;;;12.15;6.47;;;;;;;24.92;54.86;98272.84;4424563;32;20549;-80
2023/08/17 02:28:06;;;;;;;11.38;5.95;;;;;;;24.53;56.56;98274.91;4424889;32;20427;-80
2023/08/17 02:30:33;;;;;;;11.10;5.68;;;;;;;24.10;58.02;98273.69;4426738;32;20097;-81
2023/08/17 02:33:01;;;;;;;11.80;6.25;;;;;;;24.17;58.96;98269.50;4426685;32;20098;-81
2023/08/17 02:35:28;;;;;;;12.15;6.40;;;;;;;23.59;61.43;98274.12;4427096;32;20093;-80
2023/08/17 02:37:55;;;;;;;13.65;6.78;;;;;;;23.17;63.60;98263.87;4426805;32;20082;-80
2023/08/17 02:40:22;;;;;;;10.52;5.90;;;;;;;23.00;64.51;98267.22;4426583;32;20094;-81
2023/08/17 02:42:49;;;;;;;14.27;7.03;;;;;;;22.71;67.23;98268.00;4426902;32;20148;-80
2023/08/17 02:45:16;;;;;;;12.25;6.90;;;;;;;23.46;65.62;98276.19;4426727;32;20164;-80
2023/08/17 02:47:43;;;;;;;12.88;6.87;;;;;;;23.19;67.26;98276.94;4426377;32;20100;-81
2023/08/17 02:50:10;;;;;;;14.00;6.80;;;;;;;23.55;66.54;98280.63;4426846;32;20600;-81
2023/08/17 02:52:37;;;;;;;11.93;6.53;;;;;;;23.55;66.36;98276.19;4413177;32;20556;-80
2023/08/17 02:55:04;;;;;;;11.32;6.12;;;;;;;23.27;67.43;98275.25;4426555;32;20086;-81
2023/08/17 02:57:31;;;;;;;11.45;5.65;;;;;;;24.27;61.90;98266.84;4426831;32;20074;-80
2023/08/17 02:59:58;;;;;;;14.93;5.87;;;;;;;24.60;59.03;98272.50;4426777;32;20125;-80
2023/08/17 03:02:26;;;;;;;11.38;5.62;;;;;;;24.91;56.90;98270.34;4426597;32;20365;-80
2023/08/17 03:04:53;;;;;;;12.95;7.32;;;;;;;24.35;58.52;98266.09;4412858;32;20072;-81
2023/08/17 03:07:20;;;;;;;17.25;8.32;;;;;;;24.05;62.77;98273.31;4426033;32;20078;-81
2023/08/17 03:09:47;;;;;;;18.27;8.10;;;;;;;23.64;66.26;98274.53;4426793;32;20116;-80
2023/08/17 03:12:14;;;;;;;14.25;7.97;;;;;;;24.13;65.27;98269.94;4426834;32;20161;-80
2023/08/17 03:14:41;;;;;;;17.12;8.77;;;;;;;23.85;66.78;98267.28;4426339;32;20108;-81
2023/08/17 03:17:07;;;;;;;18.00;9.00;;;;;;;23.76;68.13;98269.94;4426395;32;20134;-80
2023/08/17 03:19:34;;;;;;;17.02;9.13;;;;;;;24.07;66.49;98273.16;4413013;32;20167;-81
2023/08/17 03:22:01;;;;;;;14.20;8.32;;;;;;;24.06;66.77;98279.41;4426338;32;20113;-81
2023/08/17 03:24:28;;;;;;;15.85;9.07;;;;;;;24.36;65.26;98280.97;4426414;32;20113;-80
2023/08/17 03:26:55;;;;;;;14.52;8.75;;;;;;;23.70;67.87;98286.31;4426350;32;20480;-80
2023/08/17 03:29:22;;;;;;;16.42;8.88;;;;;;;23.80;67.63;98284.47;4426319;32;20130;-81
2023/08/17 03:31:49;;;;;;;14.80;8.40;;;;;;;24.14;66.30;98287.44;4426426;32;20149;-80
2023/08/17 03:34:16;;;;;;;16.85;8.85;;;;;;;22.64;72.95;98287.91;4426460;32;20099;-80
2023/08/17 03:36:43;;;;;;;13.30;8.18;;;;;;;22.99;71.76;98281.38;4425863;32;20418;-80
2023/08/17 03:39:10;;;;;;;16.95;7.62;;;;;;;23.32;69.01;98288.84;4412629;32;20430;-81
2023/08/17 03:41:37;;;;;;;13.98;7.75;;;;;;;23.52;66.44;98288.81;4425511;32;20169;-81
2023/08/17 03:44:05;;;;;;;11.75;6.87;;;;;;;23.30;65.89;98282.88;4426010;32;20165;-81
2023/08/17 03:46:33;;;;;;;15.55;7.70;;;;;;;23.16;64.97;98292.97;4426157;32;20482;-81
2023/08/17 03:49:00;;;;;;;14.18;7.82;;;;;;;23.40;63.69;98287.31;4412280;32;20152;-81
2023/08/17 03:51:27;;;;;;;14.20;7.47;;;;;;;23.75;62.38;98289.34;4425991;32;20112;-80
2023/08/17 03:53:54;;;;;;;15.60;8.45;;;;;;;23.71;63.36;98285.31;4426213;32;20096;-80
2023/08/17 03:56:21;;;;;;;12.60;7.03;;;;;;;24.29;60.62;98277.22;4425741;32;20165;-81
2023/08/17 03:58:48;;;;;;;14.70;7.45;;;;;;;24.64;59.64;98285.25;4412460;32;20145;-81
2023/08/17 04:01:15;;;;;;;13.40;7.10;;;;;;;24.30;60.40;98294.72;4426136;32;20200;-81
2023/08/17 04:03:42;;;;;;;12.70;7.32;;;;;;;24.36;60.16;98286.25;4425811;32;20085;-81
2023/08/17 04:06:10;;;;;;;14.13;7.43;;;;;;;24.15;60.93;98289.09;4426105;32;20108;-81
2023/08/17 04:08:37;;;;;;;13.43;7.57;;;;;;;24.75;59.48;98286.84;4426072;32;20144;-81
2023/08/17 04:11:05;;;;;;;15.52;8.15;;;;;;;24.13;61.66;98298.94;4425654;32;20093;-80
2023/08/17 04:13:32;;;;;;;16.48;7.60;;;;;;;23.45;65.09;98291.19;4425993;32;20102;-81
2023/08/17 04:15:59;;;;;;;14.35;7.40;;;;;;;24.21;62.35;98291.13;4426071;32;20105;-80
2023/08/17 04:18:26;;;;;;;16.25;7.32;;;;;;;24.07;63.22;98297.72;4425596;32;20128;-81
2023/08/17 04:20:53;;;;;;;14.68;8.13;;;;;;;23.87;63.73;98296.13;4426180;32;20141;-81
2023/08/17 04:23:21;;;;;;;16.67;8.10;;;;;;;23.97;63.91;98299.56;4425982;32;20132;-81
2023/08/17 04:25:48;;;;;;;14.52;8.30;;;;;;;24.09;63.87;98298.41;4425768;32;20144;-81
2023/08/17 04:28:15;;;;;;;17.35;8.48;;;;;;;23.94;65.09;98292.78;4426179;32;20173;-81
2023/08/17 04:30:43;;;;;;;13.65;7.87;;;;;;;24.34;64.11;98289.00;4412581;32;20085;-81
2023/08/17 04:33:10;;;;;;;14.07;8.88;;;;;;;25.16;60.95;98284.63;4426336;32;20104;-81
2023/08/17 04:35:36;;;;;;;13.70;8.15;;;;;;;24.32;63.92;98290.12;4412777;32;20480;-81
2023/08/17 04:38:03;;;;;;;13.68;7.95;;;;;;;24.73;63.03;98288.81;4412875;32;20435;-81
2023/08/17 04:40:31;;;;;;;13.10;8.23;;;;;;;25.14;61.81;98298.00;4426488;32;20093;-81
2023/08/17 04:42:58;;;;;;;14.27;7.95;;;;;;;25.16;61.86;98293.37;4426418;32;20428;-81
2023/08/17 04:45:25;;;;;;;16.37;7.93;;;;;;;24.46;64.80;98290.50;4426366;32;20134;-80
2023/08/17 04:47:52;;;;;;;15.10;7.97;;;;;;;24.96;63.08;98295.31;4412922;32;20164;-80
2023/08/17 04:50:19;;;;;;;15.13;7.97;;;;;;;25.71;60.37;98287.06;4427114;32;20098;-80
2023/08/17 04:52:46;;;;;;;14.80;8.40;;;;;;;24.73;62.89;98288.81;4426131;32;20104;-81
2023/08/17 04:55:14;;;;;;;16.80;7.90;;;;;;;24.98;62.81;98292.50;4426885;32;20129;-81
2023/08/17 04:57:41;;;;;;;13.52;8.57;;;;;;;23.84;67.61;98296.41;4412578;32;20120;-80
2023/08/17 05:00:12;;;;;;;14.35;7.97;;;;;;;23.70;69.83;98296.84;4426601;32;20106;-81
2023/08/17 05:02:39;;;;;;;20.50;8.88;;;;;;;24.39;66.19;98291.22;4426912;32;20141;-81
2023/08/17 05:05:08;;;;;;;16.10;8.00;;;;;;;24.00;69.09;98301.06;4426929;32;20073;-80
2023/08/17 05:07:35;;;;;;;13.85;8.20;;;;;;;23.99;70.26;98304.69;4426397;32;20149;-81
2023/08/17 05:10:02;;;;;;;16.52;8.70;;;;;;;24.50;67.07;98293.66;4427002;32;20169;-80
2023/08/17 05:12:29;;;;;;;15.48;8.77;;;;;;;25.02;65.14;98297.38;4413139;32;20086;-80
2023/08/17 05:14:56;;;;;;;14.65;8.65;;;;;;;25.14;64.63;98291.88;4426303;32;20081;-81
2023/08/17 05:17:23;;;;;;;16.48;8.95;;;;;;;25.52;62.54;98294.19;4426388;32;20145;-81
2023/08/17 05:19:51;;;;;;;15.45;8.85;;;;;;;24.08;68.49;98299.38;4426631;32;20102;-80
2023/08/17 05:22:18;;;;;;;15.70;9.10;;;;;;;24.51;67.07;98296.16;4426286;32;20072;-80
2023/08/17 05:24:45;;;;;;;13.25;7.80;;;;;;;23.63;70.68;98309.75;4426403;32;20094;-80
2023/08/17 05:27:12;;;;;;;16.02;8.10;;;;;;;24.99;66.75;98302.09;4426197;32;20153;-80
2023/08/17 05:29:39;;;;;;;17.62;9.15;;;;;;;25.33;64.19;98311.03;4426207;32;20153;-80
2023/08/17 05:32:06;;;;;;;13.65;7.78;;;;;;;26.36;60.48;98316.50;4426236;32;20106;-80
2023/08/17 05:34:32;;;;;;;16.10;8.90;;;;;;;26.53;59.16;98320.91;4425945;32;20081;-81
2023/08/17 05:36:59;;;;;;;15.95;8.98;;;;;;;25.95;62.07;98314.50;4426362;32;20121;-81
2023/08/17 05:39:26;;;;;;;15.90;9.15;;;;;;;25.71;63.12;98316.13;4426439;32;20165;-80
2023/08/17 05:41:53;;;;;;;17.37;9.65;;;;;;;25.79;62.37;98313.56;4425971;32;20096;-81
2023/08/17 05:44:20;;;;;;;15.65;9.25;;;;;;;25.67;63.19;98324.34;4425583;32;20141;-80
2023/08/17 05:46:48;;;;;;;19.77;10.30;;;;;;;25.71;62.97;98318.78;4425266;32;20148;-80
2023/08/17 05:49:15;;;;;;;16.10;10.23;;;;;;;24.31;68.39;98317.50;4425180;32;20147;-80
2023/08/17 05:51:42;;;;;;;18.27;9.70;;;;;;;25.22;65.36;98318.38;4425512;32;20094;-80
2023/08/17 05:54:09;;;;;;;16.15;10.30;;;;;;;26.28;60.66;98325.25;4425438;32;20161;-80
2023/08/17 05:56:36;;;;;;;17.58;10.50;;;;;;;26.33;60.80;98322.13;4425048;32;20097;-80
2023/08/17 05:59:03;;;;;;;19.05;11.00;;;;;;;25.39;64.19;98323.63;4424973;32;20141;-80
2023/08/17 06:01:31;;;;;;;18.73;11.07;;;;;;;25.83;63.12;98317.53;4424622;32;20128;-80
2023/08/17 06:03:58;;;;;;;19.55;11.35;;;;;;;25.51;63.79;98313.62;4423140;32;20116;-80
2023/08/17 06:06:26;;;;;;;20.80;10.95;;;;;;;24.31;67.69;98325.41;4424289;32;20112;-80
2023/08/17 06:08:53;;;;;;;19.77;11.25;;;;;;;25.11;65.68;98321.22;4424499;32;20098;-81
2023/08/17 06:11:20;;;;;;;22.50;11.02;;;;;;;25.22;65.67;98327.13;4424179;32;20094;-79
2023/08/17 06:13:47;;;;;;;20.40;11.68;;;;;;;25.43;65.10;98320.69;4424326;32;20100;-81
2023/08/17 06:16:13;;;;;;;19.80;11.82;;;;;;;25.13;66.56;98321.91;4423966;32;20157;-81
2023/08/17 06:18:40;;;;;;;19.85;11.65;;;;;;;24.65;69.51;98317.72;4423881;32;20112;-80
2023/08/17 06:21:08;;;;;;;19.95;12.07;;;;;;;25.43;66.33;98318.06;4424861;32;20425;-80
2023/08/17 06:23:35;;;;;;;18.98;11.55;;;;;;;25.69;64.65;98316.25;4424578;32;20647;-80
2023/08/17 06:26:02;;;;;;;19.62;11.38;;;;;;;26.60;61.19;98314.00;4424445;32;20165;-79
2023/08/17 06:28:29;;;;;;;18.70;11.15;;;;;;;26.24;62.72;98315.97;4424202;32;20153;-79
2023/08/17 06:30:56;;;;;;;19.75;11.12;;;;;;;26.53;61.03;98312.97;4424220;32;20085;-78
2023/08/17 06:33:24;;;;;;;19.65;11.60;;;;;;;26.06;62.39;98307.28;4425828;32;20086;-79
2023/08/17 06:35:52;;;;;;;22.10;10.32;;;;;;;26.12;62.91;98310.13;4427216;32;20161;-79
2023/08/17 06:38:19;;;;;;;18.40;10.93;;;;;;;26.28;62.79;98317.31;4428414;32;20089;-80
2023/08/17 06:40:46;;;;;;;17.60;10.60;;;;;;;26.35;62.17;98312.22;4428653;32;20058;-80
2023/08/17 06:43:13;;;;;;;18.55;10.50;;;;;;;26.15;62.68;98314.25;4426869;32;20113;-79
2023/08/17 06:45:43;;;;;;;19.48;11.43;;;;;;;24.65;70.03;98315.09;4426281;32;20070;-79
2023/08/17 06:48:10;;;;;;;16.98;11.23;;;;;;;24.80;69.96;98324.19;4426949;32;20141;-79
2023/08/17 06:50:37;;;;;;;20.42;11.75;;;;;;;24.10;74.43;98328.22;4426507;32;20152;-79
2023/08/17 06:53:04;;;;;;;17.80;10.25;;;;;;;24.40;73.72;98330.63;4425644;32;20090;-79
2023/08/17 06:55:32;;;;;;;20.23;11.90;;;;;;;24.11;74.79;98327.25;4426685;32;20093;-79
2023/08/17 06:57:59;;;;;;;18.70;11.70;;;;;;;23.85;77.82;98325.25;4426068;32;20138;-79
2023/08/17 07:00:26;;;;;;;21.83;12.20;;;;;;;23.37;79.33;98334.00;4425645;32;20164;-79
2023/08/17 07:02:53;;;;;;;18.50;10.73;;;;;;;23.55;79.91;98328.03;4425993;32;20089;-79
2023/08/17 07:05:25;;;;;;;16.52;11.12;;;;;;;24.14;77.68;98330.44;4426293;32;20098;-79
2023/08/17 07:07:52;;;;;;;17.92;10.43;;;;;;;23.89;76.76;98334.50;4412658;32;20097;-79
2023/08/17 07:10:20;;;;;;;17.42;10.88;;;;;;;23.72;76.82;98332.63;4426182;32;20154;-79
2023/08/17 07:12:46;;;;;;;20.15;12.15;;;;;;;23.78;78.92;98328.59;4425826;32;20086;-79
2023/08/17 07:15:13;;;;;;;20.83;11.32;;;;;;;24.74;73.36;98328.22;4426810;32;20500;-79
2023/08/17 07:17:41;;;;;;;21.20;11.75;;;;;;;24.65;73.05;98328.28;4428332;32;20106;-79
2023/08/17 07:20:09;;;;;;;16.55;10.15;;;;;;;24.91;72.86;98333.69;4427441;32;20089;-79
2023/08/17 07:22:39;;;;;;;17.05;9.98;;;;;;;25.28;69.58;98330.94;4414178;32;20385;-79
2023/08/17 07:25:08;;;;;;;16.23;10.02;;;;;;;25.85;67.76;98324.34;4413682;32;20181;-80
2023/08/17 07:27:35;;;;;;;17.20;10.07;;;;;;;26.63;63.29;98331.37;4425812;32;20108;-79
2023/08/17 07:30:03;;;;;;;14.13;9.00;;;;;;;25.97;65.55;98324.09;4426012;32;20082;-80
2023/08/17 07:32:30;;;;;;;17.15;8.40;;;;;;;26.31;63.54;98324.94;4425987;32;20134;-79
2023/08/17 07:34:57;;;;;;;15.77;8.90;;;;;;;26.20;61.80;98328.69;4426298;32;20085;-80
2023/08/17 07:37:25;;;;;;;16.70;9.02;;;;;;;26.93;60.29;98327.34;4425826;32;20111;-79
2023/08/17 07:39:52;;;;;;;19.45;8.95;;;;;;;27.28;59.24;98327.06;4426011;32;20109;-79
2023/08/17 07:42:19;;;;;;;12.40;6.80;;;;;;;28.30;55.71;98331.00;4425514;32;20098;-78
2023/08/17 07:44:47;;;;;;;13.23;7.20;;;;;;;28.43;53.35;98328.62;4425359;32;20369;-78
2023/08/17 07:47:14;;;;;;;13.25;7.45;;;;;;;28.84;51.46;98314.34;4425397;32;20093;-79
2023/08/17 07:49:41;;;;;;;13.27;6.12;;;;;;;29.57;50.36;98319.19;4425417;32;20156;-79
2023/08/17 07:52:07;;;;;;;12.55;6.82;;;;;;;31.22;47.15;98317.94;4425756;32;20150;-79
2023/08/17 07:54:34;;;;;;;13.68;6.95;;;;;;;29.93;48.26;98319.34;4425296;32;20121;-79
2023/08/17 07:57:03;;;;;;;13.00;7.90;;;;;;;29.80;49.06;98319.16;4426004;32;20116;-78
2023/08/17 07:59:30;;;;;;;11.27;6.30;;;;;;;30.38;48.21;98326.34;4419369;32;20093;-77
2023/08/17 08:01:57;;;;;;;14.18;6.68;;;;;;;29.67;47.98;98327.75;4433749;32;20070;-76
2023/08/17 08:04:24;;;;;;;12.88;6.32;;;;;;;29.98;49.10;98319.59;4435578;32;20076;-79
2023/08/17 08:06:52;;;;;;;13.27;6.82;;;;;;;29.87;49.35;98318.22;4433405;32;20084;-80
2023/08/17 08:09:19;;;;;;;11.93;6.05;;;;;;;29.15;50.86;98325.81;4437060;32;20098;-79
2023/08/17 08:11:45;;;;;;;12.93;6.43;;;;;;;30.01;46.93;98324.59;4435187;32;20080;-80
2023/08/17 08:14:12;;;;;;;10.88;6.22;;;;;;;29.09;49.63;98324.66;4433582;32;20127;-80
2023/08/17 08:16:39;;;;;;;11.98;7.05;;;;;;;28.80;50.86;98325.28;4438401;32;20121;-79
2023/08/17 08:19:06;;;;;;;12.52;6.55;;;;;;;29.07;51.32;98317.88;4440258;32;20082;-80
2023/08/17 08:21:33;;;;;;;14.63;6.25;;;;;;;28.58;51.93;98323.41;4440479;32;20084;-80
2023/08/17 08:24:00;;;;;;;14.65;6.37;;;;;;;29.44;49.88;98317.09;4440234;32;20074;-78
2023/08/17 08:26:44;;;;;;;10.35;5.57;;;;;;;27.64;55.25;98321.44;4426379;32;20089;-79
2023/08/17 08:29:11;;;;;;;10.88;5.65;;;;;;;27.35;54.14;98311.38;4440384;32;20054;-79
2023/08/17 08:31:38;;;;;;;10.85;5.35;;;;;;;26.72;56.74;98317.19;4439882;32;20085;-78
2023/08/17 08:34:05;;;;;;;12.57;5.35;;;;;;;26.56;56.80;98319.75;4439882;32;20080;-77
2023/08/17 08:36:42;;;;;;;12.40;6.28;;;;;;;26.32;58.84;98320.47;4440024;32;20122;-78
2023/08/17 08:39:10;;;;;;;14.15;6.30;;;;;;;26.32;60.59;98313.34;4427079;32;20072;-78
2023/08/17 08:41:38;;;;;;;10.80;5.55;;;;;;;27.12;58.28;98313.00;4440044;32;20058;-79
2023/08/17 08:44:05;;;;;;;9.77;5.35;;;;;;;28.61;52.48;98309.00;4433394;32;20152;-82
2023/08/17 08:46:33;;;;;;;10.55;5.32;;;;;;;28.31;52.63;98300.81;4411685;32;20139;-82
2023/08/17 08:49:00;;;;;;;10.32;5.57;;;;;;;28.42;54.68;98315.53;4425376;32;20149;-82
2023/08/17 08:51:33;;;;;;;11.18;5.72;;;;;;;29.53;50.31;98310.72;4411648;32;20161;-82
2023/08/17 08:54:04;;;;;;;9.35;5.28;;;;;;;28.73;51.22;98299.63;4413620;32;20461;-82
2023/08/17 08:56:33;;;;;;;12.15;5.65;;;;;;;30.32;46.90;98300.50;4412451;32;20135;-82
2023/08/17 08:59:02;;;;;;;10.95;5.82;;;;;;;30.24;47.44;98305.91;4411626;32;20089;-82
2023/08/17 09:01:32;;;;;;;11.98;5.50;;;;;;;29.70;48.31;98300.78;4425453;32;20157;-82
2023/08/17 09:04:03;;;;;;;9.98;5.78;;;;;;;31.97;43.74;98303.19;4426760;32;20163;-82
2023/08/17 09:06:32;;;;;;;9.40;5.57;;;;;;;32.50;41.83;98307.00;4428540;32;20115;-82
2023/08/17 09:09:00;;;;;;;11.30;5.65;;;;;;;32.75;41.89;98302.81;4429064;32;20112;-82
2023/08/17 09:11:28;;;;;;;10.32;5.50;;;;;;;33.28;40.26;98302.09;4415820;32;20085;-82
2023/08/17 09:13:54;;;;;;;9.73;5.10;;;;;;;32.79;41.44;98304.03;4430854;32;20097;-82
2023/08/17 09:16:22;;;;;;;10.00;5.57;;;;;;;32.19;41.80;98308.25;4429046;32;20110;-82
2023/08/17 09:18:53;;;;;;;9.93;5.53;;;;;;;31.54;42.31;98290.75;4429271;32;20108;-82
2023/08/17 09:21:24;;;;;;;9.50;5.70;;;;;;;32.09;41.97;98299.78;4414701;32;20134;-82
2023/08/17 09:23:55;;;;;;;10.73;4.90;;;;;;;31.91;42.92;98297.62;4414901;32;20159;-82
2023/08/17 09:26:30;;;;;;;11.32;4.90;;;;;;;32.17;42.31;98296.13;4413873;32;20140;-82
2023/08/17 09:28:59;;;;;;;10.82;5.00;;;;;;;31.03;43.26;98296.22;4412308;32;20163;-82
2023/08/17 09:31:26;;;;;;;10.48;4.37;;;;;;;30.33;45.76;98293.34;4415077;32;20153;-83
2023/08/17 09:33:53;;;;;;;8.27;3.78;;;;;;;30.55;44.46;98291.56;4424852;32;20097;-82
2023/08/17 09:36:22;;;;;;;8.57;4.30;;;;;;;29.80;44.54;98290.72;4425402;32;20089;-82
2023/08/17 09:38:50;;;;;;;8.68;3.50;;;;;;;30.11;45.32;98293.25;4423719;32;20116;-82
2023/08/17 09:41:20;;;;;;;10.43;4.30;;;;;;;30.12;43.72;98294.91;4424636;32;20107;-81
2023/08/17 09:43:55;;;;;;;8.68;4.50;;;;;;;29.70;45.08;98284.00;4425129;32;20467;-82
2023/08/17 09:46:22;;;;;;;10.88;4.65;;;;;;;29.65;45.94;98287.19;4424994;32;20093;-82
2023/08/17 09:48:49;;;;;;;10.07;4.47;;;;;;;30.59;43.44;98282.16;4424750;32;20094;-82
2023/08/17 09:51:16;;;;;;;11.00;4.50;;;;;;;30.80;43.80;98285.72;4424886;32;20097;-83
2023/08/17 09:53:43;;;;;;;9.25;4.82;;;;;;;30.55;44.55;98281.72;4424783;32;20191;-82
2023/08/17 09:56:10;;;;;;;7.72;3.87;;;;;;;31.32;42.82;98281.13;4424297;32;20244;-82
2023/08/17 09:58:43;;;;;;;8.90;4.62;;;;;;;31.29;43.74;98289.53;4411721;32;20147;-82
2023/08/17 10:01:12;;;;;;;11.32;4.55;;;;;;;31.43;41.96;98295.78;4424464;32;20104;-82
2023/08/17 10:03:41;;;;;;;8.65;4.28;;;;;;;31.20;42.10;98288.81;4425219;32;20094;-81
2023/08/17 10:06:10;;;;;;;9.65;4.85;;;;;;;31.52;41.41;98286.63;4425222;32;20089;-81
2023/08/17 10:08:43;;;;;;;10.82;4.10;;;;;;;30.07;44.60;98277.81;4413061;32;20571;-82
2023/08/17 10:11:10;;;;;;;9.65;3.97;;;;;;;29.37;46.05;98274.47;4426696;32;20376;-82
2023/08/17 10:13:43;;;;;;;10.38;4.50;;;;;;;29.75;45.40;98285.09;4413168;32;20114;-82
2023/08/17 10:16:16;;;;;;;9.60;4.50;;;;;;;29.32;45.48;98281.31;4412718;32;20165;-81
2023/08/17 10:19:12;;;;;;;8.68;4.10;;;;;;;30.65;43.68;98282.28;4426718;32;20078;-82
2023/08/17 10:21:50;;;;;;;8.15;4.10;;;;;;;29.71;45.27;98275.84;4423425;32;20090;-81
2023/08/17 10:24:18;;;;;;;8.77;4.62;;;;;;;29.54;46.38;98266.38;4426521;32;20157;-82
2023/08/17 10:26:46;;;;;;;10.75;4.72;;;;;;;30.35;44.38;98272.66;4425665;32;20097;-82
2023/08/17 10:29:13;;;;;;;10.68;4.40;;;;;;;30.37;44.17;98267.97;4411801;32;20086;-81
2023/08/17 10:31:46;;;;;;;9.70;4.65;;;;;;;30.86;42.63;98272.69;4424700;32;20124;-82
2023/08/17 10:34:15;;;;;;;10.00;4.65;;;;;;;30.70;43.92;98271.87;4424417;32;20101;-83
2023/08/17 10:36:42;;;;;;;7.25;3.62;;;;;;;30.76;42.90;98265.00;4410204;32;20452;-82
2023/08/17 10:39:28;;;;;;;9.52;4.72;;;;;;;31.32;41.71;98270.47;4424277;32;20109;-82
2023/08/17 10:41:57;;;;;;;11.60;4.90;;;;;;;30.99;43.23;98265.63;4413590;32;20081;-81
2023/08/17 10:44:46;;;;;;;8.73;4.60;;;;;;;31.96;40.88;98265.03;4429322;32;20085;-81
2023/08/17 10:47:26;;;;;;;10.68;4.80;;;;;;;32.19;39.91;98265.56;4424567;32;20526;-81
2023/08/17 10:50:04;;;;;;;9.57;4.97;;;;;;;32.28;40.22;98271.56;4426279;32;20100;-81
2023/08/17 10:52:33;;;;;;;10.77;5.05;;;;;;;31.26;41.87;98256.09;4427551;32;20099;-81
2023/08/17 10:55:05;;;;;;;10.38;4.85;;;;;;;31.79;41.45;98261.00;4427916;32;20098;-81
2023/08/17 10:57:43;;;;;;;8.70;4.90;;;;;;;31.81;41.62;98256.31;4414887;32;20113;-80
2023/08/17 11:00:16;;;;;;;10.23;4.90;;;;;;;31.29;41.83;98262.87;4428103;32;20086;-81
2023/08/17 11:02:56;;;;;;;11.77;5.53;;;;;;;32.24;41.28;98259.62;4423513;32;20167;-79
2023/08/17 11:05:41;;;;;;;9.60;5.00;;;;;;;31.93;41.70;98260.09;4426229;32;20093;-79
2023/08/17 11:08:10;;;;;;;11.32;4.95;;;;;;;31.91;41.73;98256.78;4426206;32;20117;-80
2023/08/17 11:10:38;;;;;;;10.65;5.05;;;;;;;31.36;43.04;98261.06;4428203;32;20086;-80
2023/08/17 11:13:06;;;;;;;9.25;5.03;;;;;;;30.96;43.50;98259.88;4415170;32;20082;-83
2023/08/17 11:15:44;;;;;;;10.25;4.93;;;;;;;31.81;41.70;98259.81;4427320;32;20142;-83
2023/08/17 11:18:12;;;;;;;9.25;5.03;;;;;;;33.73;37.95;98255.03;4425207;32;20097;-78
2023/08/17 11:20:41;;;;;;;9.20;4.95;;;;;;;32.87;39.29;98254.97;4427625;32;20108;-80
2023/08/17 11:23:09;;;;;;;9.35;4.95;;;;;;;31.88;41.55;98259.84;4428747;32;20078;-79
2023/08/17 11:25:37;;;;;;;9.82;5.40;;;;;;;31.25;42.87;98253.59;4427615;32;20086;-79
2023/08/17 11:28:06;;;;;;;9.00;4.80;;;;;;;31.26;41.36;98250.75;4428402;32;20108;-79
2023/08/17 11:30:38;;;;;;;8.45;4.55;;;;;;;30.73;43.38;98250.22;4429755;32;20098;-79